sensor_id;sensor_type;location;lat;lon;timestamp;temperature;humidity
58153;DHT22;43967;51.634;5.566;2022-08-14T00:04:11;28.10;50.90
58153;DHT22;43967;51.634;5.566;2022-08-14T00:09:12;28.10;50.90
58153;DHT22;43967;51.634;5.566;2022-08-14T00:14:13;28.10;50.90
58153;DHT22;43967;51.634;5.566;2022-08-14T00:19:14;28.10;50.90
58153;DHT22;43967;51.634;5.566;2022-08-14T00:24:16;28.10;50.90
58153;DHT22;43967;51.634;5.566;2022-08-14T00:29:17;28.10;51.00
58153;DHT22;43967;51.634;5.566;2022-08-14T00:34:18;28.10;50.90
58153;DHT22;43967;51.634;5.566;2022-08-14T00:39:24;28.10;50.80
58153;DHT22;43967;51.634;5.566;2022-08-14T00:44:25;28.10;50.80
58153;DHT22;43967;51.634;5.566;2022-08-14T00:49:26;28.10;50.90
58153;DHT22;43967;51.634;5.566;2022-08-14T00:54:27;28.10;50.80
58153;DHT22;43967;51.634;5.566;2022-08-14T00:59:28;28.00;50.80
58153;DHT22;43967;51.634;5.566;2022-08-14T01:04:30;28.00;50.80
58153;DHT22;43967;51.634;5.566;2022-08-14T01:09:35;28.00;50.80
58153;DHT22;43967;51.634;5.566;2022-08-14T01:14:36;28.00;50.80
58153;DHT22;43967;51.634;5.566;2022-08-14T01:19:37;28.00;50.80
58153;DHT22;43967;51.634;5.566;2022-08-14T01:24:40;28.00;50.80
58153;DHT22;43967;51.634;5.566;2022-08-14T01:29:41;28.00;50.80
58153;DHT22;43967;51.634;5.566;2022-08-14T01:34:46;28.00;50.80
58153;DHT22;43967;51.634;5.566;2022-08-14T01:39:48;28.00;50.80
58153;DHT22;43967;51.634;5.566;2022-08-14T01:44:49;28.00;50.80
58153;DHT22;43967;51.634;5.566;2022-08-14T01:49:50;28.00;50.80
58153;DHT22;43967;51.634;5.566;2022-08-14T01:54:51;28.00;50.80
58153;DHT22;43967;51.634;5.566;2022-08-14T01:59:55;27.90;51.50
58153;DHT22;43967;51.634;5.566;2022-08-14T02:04:56;27.90;50.80
58153;DHT22;43967;51.634;5.566;2022-08-14T02:09:58;27.90;51.50
58153;DHT22;43967;51.634;5.566;2022-08-14T02:14:59;27.90;50.80
58153;DHT22;43967;51.634;5.566;2022-08-14T02:20:00;27.90;50.80
58153;DHT22;43967;51.634;5.566;2022-08-14T02:25:03;27.90;50.80
58153;DHT22;43967;51.634;5.566;2022-08-14T02:30:06;27.80;50.80
58153;DHT22;43967;51.634;5.566;2022-08-14T02:35:09;27.80;50.80
58153;DHT22;43967;51.634;5.566;2022-08-14T02:40:10;27.90;50.80
58153;DHT22;43967;51.634;5.566;2022-08-14T02:45:11;27.80;50.80
58153;DHT22;43967;51.634;5.566;2022-08-14T02:50:12;27.80;50.90
58153;DHT22;43967;51.634;5.566;2022-08-14T02:55:13;27.80;50.90
58153;DHT22;43967;51.634;5.566;2022-08-14T03:00:15;27.80;50.90
58153;DHT22;43967;51.634;5.566;2022-08-14T03:05:17;27.80;50.90
58153;DHT22;43967;51.634;5.566;2022-08-14T03:10:18;27.70;50.80
58153;DHT22;43967;51.634;5.566;2022-08-14T03:15:19;27.70;50.80
58153;DHT22;43967;51.634;5.566;2022-08-14T03:20:20;27.80;50.90
58153;DHT22;43967;51.634;5.566;2022-08-14T03:25:21;27.70;50.80
58153;DHT22;43967;51.634;5.566;2022-08-14T03:30:22;27.70;50.80
58153;DHT22;43967;51.634;5.566;2022-08-14T03:35:25;27.70;50.80
58153;DHT22;43967;51.634;5.566;2022-08-14T03:40:26;27.70;50.80
58153;DHT22;43967;51.634;5.566;2022-08-14T03:45:28;27.70;50.90
58153;DHT22;43967;51.634;5.566;2022-08-14T03:50:30;27.70;50.80
58153;DHT22;43967;51.634;5.566;2022-08-14T03:55:32;27.70;50.80
58153;DHT22;43967;51.634;5.566;2022-08-14T04:00:34;27.70;51.60
58153;DHT22;43967;51.634;5.566;2022-08-14T04:05:36;27.70;51.00
58153;DHT22;43967;51.634;5.566;2022-08-14T04:10:38;27.70;51.00
58153;DHT22;43967;51.634;5.566;2022-08-14T04:15:39;27.60;50.90
58153;DHT22;43967;51.634;5.566;2022-08-14T04:20:41;27.60;51.00
58153;DHT22;43967;51.634;5.566;2022-08-14T04:25:42;27.60;51.00
58153;DHT22;43967;51.634;5.566;2022-08-14T04:30:43;27.60;51.00
58153;DHT22;43967;51.634;5.566;2022-08-14T04:35:44;27.60;51.00
58153;DHT22;43967;51.634;5.566;2022-08-14T04:40:45;27.60;51.00
58153;DHT22;43967;51.634;5.566;2022-08-14T04:45:46;27.60;51.00
58153;DHT22;43967;51.634;5.566;2022-08-14T04:50:51;27.60;51.00
58153;DHT22;43967;51.634;5.566;2022-08-14T04:55:53;27.60;51.00
58153;DHT22;43967;51.634;5.566;2022-08-14T05:00:56;27.60;51.00
58153;DHT22;43967;51.634;5.566;2022-08-14T05:06:01;27.50;51.00
58153;DHT22;43967;51.634;5.566;2022-08-14T05:11:04;27.50;51.00
58153;DHT22;43967;51.634;5.566;2022-08-14T05:16:06;27.50;51.00
58153;DHT22;43967;51.634;5.566;2022-08-14T05:21:08;27.50;51.00
58153;DHT22;43967;51.634;5.566;2022-08-14T05:26:09;27.50;51.00
58153;DHT22;43967;51.634;5.566;2022-08-14T05:31:15;27.50;51.00
58153;DHT22;43967;51.634;5.566;2022-08-14T05:36:17;27.50;51.00
58153;DHT22;43967;51.634;5.566;2022-08-14T05:41:18;27.50;51.00
58153;DHT22;43967;51.634;5.566;2022-08-14T05:46:20;27.50;51.00
58153;DHT22;43967;51.634;5.566;2022-08-14T05:51:22;27.60;51.00
58153;DHT22;43967;51.634;5.566;2022-08-14T05:56:24;27.60;51.00
58153;DHT22;43967;51.634;5.566;2022-08-14T06:01:25;27.60;51.00
58153;DHT22;43967;51.634;5.566;2022-08-14T06:06:26;27.70;51.10
58153;DHT22;43967;51.634;5.566;2022-08-14T06:11:27;27.70;51.20
58153;DHT22;43967;51.634;5.566;2022-08-14T06:16:28;27.70;51.40
58153;DHT22;43967;51.634;5.566;2022-08-14T06:21:29;27.70;51.40
58153;DHT22;43967;51.634;5.566;2022-08-14T06:26:30;27.70;51.40
58153;DHT22;43967;51.634;5.566;2022-08-14T06:31:32;27.80;51.40
58153;DHT22;43967;51.634;5.566;2022-08-14T06:36:33;27.80;51.20
58153;DHT22;43967;51.634;5.566;2022-08-14T06:41:34;27.90;51.30
58153;DHT22;43967;51.634;5.566;2022-08-14T06:46:35;27.90;51.30
58153;DHT22;43967;51.634;5.566;2022-08-14T06:51:36;27.90;51.30
58153;DHT22;43967;51.634;5.566;2022-08-14T06:56:37;27.90;51.40
58153;DHT22;43967;51.634;5.566;2022-08-14T07:01:38;27.90;51.50
58153;DHT22;43967;51.634;5.566;2022-08-14T07:06:40;28.00;52.20
58153;DHT22;43967;51.634;5.566;2022-08-14T07:11:41;28.00;51.50
58153;DHT22;43967;51.634;5.566;2022-08-14T07:16:42;28.00;51.50
58153;DHT22;43967;51.634;5.566;2022-08-14T07:21:43;28.00;51.40
58153;DHT22;43967;51.634;5.566;2022-08-14T07:26:44;28.10;51.50
58153;DHT22;43967;51.634;5.566;2022-08-14T07:31:45;28.10;51.50
58153;DHT22;43967;51.634;5.566;2022-08-14T07:36:46;28.10;51.40
58153;DHT22;43967;51.634;5.566;2022-08-14T07:41:47;28.10;51.40
58153;DHT22;43967;51.634;5.566;2022-08-14T07:46:48;28.10;51.40
58153;DHT22;43967;51.634;5.566;2022-08-14T07:51:49;28.20;51.40
58153;DHT22;43967;51.634;5.566;2022-08-14T07:56:50;28.20;51.40
58153;DHT22;43967;51.634;5.566;2022-08-14T08:01:52;28.20;51.40
58153;DHT22;43967;51.634;5.566;2022-08-14T08:06:54;28.20;51.40
58153;DHT22;43967;51.634;5.566;2022-08-14T08:11:55;28.30;51.40
58153;DHT22;43967;51.634;5.566;2022-08-14T08:16:56;28.30;51.40
58153;DHT22;43967;51.634;5.566;2022-08-14T08:22:00;28.30;51.40
58153;DHT22;43967;51.634;5.566;2022-08-14T08:27:01;28.30;51.40
58153;DHT22;43967;51.634;5.566;2022-08-14T08:32:03;28.30;51.40
58153;DHT22;43967;51.634;5.566;2022-08-14T08:37:04;28.40;51.50
58153;DHT22;43967;51.634;5.566;2022-08-14T08:42:05;28.40;51.50
58153;DHT22;43967;51.634;5.566;2022-08-14T08:47:06;28.40;51.50
58153;DHT22;43967;51.634;5.566;2022-08-14T08:52:07;28.40;51.50
58153;DHT22;43967;51.634;5.566;2022-08-14T08:57:12;28.40;51.50
58153;DHT22;43967;51.634;5.566;2022-08-14T09:02:15;28.50;51.50
58153;DHT22;43967;51.634;5.566;2022-08-14T09:07:16;28.50;51.50
58153;DHT22;43967;51.634;5.566;2022-08-14T09:12:18;28.50;51.50
58153;DHT22;43967;51.634;5.566;2022-08-14T09:17:19;28.50;51.50
58153;DHT22;43967;51.634;5.566;2022-08-14T09:22:21;28.60;51.60
58153;DHT22;43967;51.634;5.566;2022-08-14T09:27:23;28.50;51.50
58153;DHT22;43967;51.634;5.566;2022-08-14T09:32:31;28.60;51.50
58153;DHT22;43967;51.634;5.566;2022-08-14T09:37:54;28.60;51.60
58153;DHT22;43967;51.634;5.566;2022-08-14T09:43:35;28.60;52.20
58153;DHT22;43967;51.634;5.566;2022-08-14T09:48:43;28.60;51.60
58153;DHT22;43967;51.634;5.566;2022-08-14T09:53:56;28.60;51.60
58153;DHT22;43967;51.634;5.566;2022-08-14T09:59:10;28.70;52.40
58153;DHT22;43967;51.634;5.566;2022-08-14T10:04:23;28.70;51.60
58153;DHT22;43967;51.634;5.566;2022-08-14T10:09:24;28.70;51.70
58153;DHT22;43967;51.634;5.566;2022-08-14T10:14:28;28.70;51.60
58153;DHT22;43967;51.634;5.566;2022-08-14T10:19:29;28.70;51.50
58153;DHT22;43967;51.634;5.566;2022-08-14T10:24:36;28.80;51.60
58153;DHT22;43967;51.634;5.566;2022-08-14T10:29:38;28.80;51.50
58153;DHT22;43967;51.634;5.566;2022-08-14T10:34:39;28.80;51.50
58153;DHT22;43967;51.634;5.566;2022-08-14T10:39:56;28.80;51.50
58153;DHT22;43967;51.634;5.566;2022-08-14T10:44:58;28.80;51.50
58153;DHT22;43967;51.634;5.566;2022-08-14T10:50:03;28.80;51.40
58153;DHT22;43967;51.634;5.566;2022-08-14T10:55:15;28.80;51.40
58153;DHT22;43967;51.634;5.566;2022-08-14T11:00:25;28.90;51.50
58153;DHT22;43967;51.634;5.566;2022-08-14T11:05:38;28.90;51.50
58153;DHT22;43967;51.634;5.566;2022-08-14T11:10:48;28.90;51.50
58153;DHT22;43967;51.634;5.566;2022-08-14T11:15:50;28.90;51.50
58153;DHT22;43967;51.634;5.566;2022-08-14T11:20:54;28.90;51.40
58153;DHT22;43967;51.634;5.566;2022-08-14T11:25:57;29.00;51.50
58153;DHT22;43967;51.634;5.566;2022-08-14T11:30:58;28.90;51.40
58153;DHT22;43967;51.634;5.566;2022-08-14T11:36:02;29.00;51.50
58153;DHT22;43967;51.634;5.566;2022-08-14T11:41:04;29.00;51.50
58153;DHT22;43967;51.634;5.566;2022-08-14T11:46:05;29.00;51.40
58153;DHT22;43967;51.634;5.566;2022-08-14T11:51:18;29.00;51.40
58153;DHT22;43967;51.634;5.566;2022-08-14T11:56:19;29.00;51.40
58153;DHT22;43967;51.634;5.566;2022-08-14T12:01:26;29.10;51.50
58153;DHT22;43967;51.634;5.566;2022-08-14T12:06:27;29.10;51.50
58153;DHT22;43967;51.634;5.566;2022-08-14T12:11:39;29.10;51.40
58153;DHT22;43967;51.634;5.566;2022-08-14T12:16:40;29.10;51.40
58153;DHT22;43967;51.634;5.566;2022-08-14T12:21:49;29.10;51.50
58153;DHT22;43967;51.634;5.566;2022-08-14T12:26:55;29.10;51.50
58153;DHT22;43967;51.634;5.566;2022-08-14T12:31:58;29.10;51.40
58153;DHT22;43967;51.634;5.566;2022-08-14T12:37:07;29.20;51.40
58153;DHT22;43967;51.634;5.566;2022-08-14T12:42:08;29.20;51.50
58153;DHT22;43967;51.634;5.566;2022-08-14T12:47:12;29.20;51.50
58153;DHT22;43967;51.634;5.566;2022-08-14T12:52:13;29.20;51.40
58153;DHT22;43967;51.634;5.566;2022-08-14T12:57:14;29.20;51.40
58153;DHT22;43967;51.634;5.566;2022-08-14T13:02:21;29.20;51.40
58153;DHT22;43967;51.634;5.566;2022-08-14T13:07:26;29.30;51.50
58153;DHT22;43967;51.634;5.566;2022-08-14T13:12:27;29.20;51.40
58153;DHT22;43967;51.634;5.566;2022-08-14T13:17:28;29.20;51.40
58153;DHT22;43967;51.634;5.566;2022-08-14T13:22:30;29.20;51.40
58153;DHT22;43967;51.634;5.566;2022-08-14T13:27:33;29.30;51.40
58153;DHT22;43967;51.634;5.566;2022-08-14T13:32:35;29.20;51.40
58153;DHT22;43967;51.634;5.566;2022-08-14T13:37:36;29.20;51.40
58153;DHT22;43967;51.634;5.566;2022-08-14T13:42:47;29.20;51.40
58153;DHT22;43967;51.634;5.566;2022-08-14T13:47:49;29.20;51.40
58153;DHT22;43967;51.634;5.566;2022-08-14T13:52:51;29.20;51.40
58153;DHT22;43967;51.634;5.566;2022-08-14T13:57:57;29.20;51.40
58153;DHT22;43967;51.634;5.566;2022-08-14T14:03:00;29.20;51.40
58153;DHT22;43967;51.634;5.566;2022-08-14T14:08:04;29.20;51.40
58153;DHT22;43967;51.634;5.566;2022-08-14T14:13:06;29.20;51.50
58153;DHT22;43967;51.634;5.566;2022-08-14T14:18:07;29.20;51.50
58153;DHT22;43967;51.634;5.566;2022-08-14T14:23:11;29.20;51.50
58153;DHT22;43967;51.634;5.566;2022-08-14T14:28:15;29.20;51.50
58153;DHT22;43967;51.634;5.566;2022-08-14T14:33:16;29.20;51.50
58153;DHT22;43967;51.634;5.566;2022-08-14T14:38:18;29.20;51.40
58153;DHT22;43967;51.634;5.566;2022-08-14T14:43:20;29.30;51.50
58153;DHT22;43967;51.634;5.566;2022-08-14T14:48:21;29.30;51.50
58153;DHT22;43967;51.634;5.566;2022-08-14T14:53:23;29.30;51.50
58153;DHT22;43967;51.634;5.566;2022-08-14T14:58:24;29.30;51.50
58153;DHT22;43967;51.634;5.566;2022-08-14T15:03:26;29.20;51.40
58153;DHT22;43967;51.634;5.566;2022-08-14T15:08:27;29.20;51.40
58153;DHT22;43967;51.634;5.566;2022-08-14T15:13:28;29.30;51.50
58153;DHT22;43967;51.634;5.566;2022-08-14T15:18:29;29.20;51.50
58153;DHT22;43967;51.634;5.566;2022-08-14T15:23:30;29.30;51.60
58153;DHT22;43967;51.634;5.566;2022-08-14T15:28:32;29.20;51.50
58153;DHT22;43967;51.634;5.566;2022-08-14T15:33:33;29.30;51.60
58153;DHT22;43967;51.634;5.566;2022-08-14T15:38:34;29.20;51.60
58153;DHT22;43967;51.634;5.566;2022-08-14T15:43:35;29.30;51.60
58153;DHT22;43967;51.634;5.566;2022-08-14T15:48:37;29.20;51.60
58153;DHT22;43967;51.634;5.566;2022-08-14T15:53:38;29.20;51.60
58153;DHT22;43967;51.634;5.566;2022-08-14T15:58:39;29.20;51.70
58153;DHT22;43967;51.634;5.566;2022-08-14T16:03:40;29.20;51.60
58153;DHT22;43967;51.634;5.566;2022-08-14T16:08:42;29.20;51.60
58153;DHT22;43967;51.634;5.566;2022-08-14T16:13:45;29.20;51.60
58153;DHT22;43967;51.634;5.566;2022-08-14T16:18:48;29.20;51.60
58153;DHT22;43967;51.634;5.566;2022-08-14T16:23:49;29.20;51.60
58153;DHT22;43967;51.634;5.566;2022-08-14T16:28:52;29.20;51.60
58153;DHT22;43967;51.634;5.566;2022-08-14T16:33:54;29.20;51.60
58153;DHT22;43967;51.634;5.566;2022-08-14T16:39:00;29.20;51.60
58153;DHT22;43967;51.634;5.566;2022-08-14T16:44:07;29.20;51.60
58153;DHT22;43967;51.634;5.566;2022-08-14T16:49:11;29.10;51.70
58153;DHT22;43967;51.634;5.566;2022-08-14T16:54:15;29.20;51.70
58153;DHT22;43967;51.634;5.566;2022-08-14T16:59:18;29.20;51.70
58153;DHT22;43967;51.634;5.566;2022-08-14T17:04:19;29.20;51.70
58153;DHT22;43967;51.634;5.566;2022-08-14T17:09:41;29.20;51.80
58153;DHT22;43967;51.634;5.566;2022-08-14T17:15:00;29.20;51.80
58153;DHT22;43967;51.634;5.566;2022-08-14T17:20:08;29.20;51.90
58153;DHT22;43967;51.634;5.566;2022-08-14T17:25:10;29.20;51.90
58153;DHT22;43967;51.634;5.566;2022-08-14T17:30:13;29.20;51.90
58153;DHT22;43967;51.634;5.566;2022-08-14T17:35:14;29.20;52.60
58153;DHT22;43967;51.634;5.566;2022-08-14T17:40:18;29.20;52.10
58153;DHT22;43967;51.634;5.566;2022-08-14T17:45:23;29.10;52.00
58153;DHT22;43967;51.634;5.566;2022-08-14T17:50:45;29.20;52.00
58153;DHT22;43967;51.634;5.566;2022-08-14T17:55:48;29.10;52.00
58153;DHT22;43967;51.634;5.566;2022-08-14T18:00:54;29.10;52.00
58153;DHT22;43967;51.634;5.566;2022-08-14T18:05:56;29.10;52.00
58153;DHT22;43967;51.634;5.566;2022-08-14T18:11:00;29.10;51.90
58153;DHT22;43967;51.634;5.566;2022-08-14T18:16:02;29.10;52.00
58153;DHT22;43967;51.634;5.566;2022-08-14T18:21:05;29.10;51.90
58153;DHT22;43967;51.634;5.566;2022-08-14T18:26:06;29.10;52.00
58153;DHT22;43967;51.634;5.566;2022-08-14T18:36:46;29.10;52.00
58153;DHT22;43967;51.634;5.566;2022-08-14T18:41:47;29.10;52.00
58153;DHT22;43967;51.634;5.566;2022-08-14T18:52:13;29.00;52.00
58153;DHT22;43967;51.634;5.566;2022-08-14T18:57:14;29.10;52.00
58153;DHT22;43967;51.634;5.566;2022-08-14T19:07:29;29.00;52.10
58153;DHT22;43967;51.634;5.566;2022-08-14T19:12:56;29.00;52.00
58153;DHT22;43967;51.634;5.566;2022-08-14T19:17:57;29.00;52.10
58153;DHT22;43967;51.634;5.566;2022-08-14T19:23:14;29.00;52.00
58153;DHT22;43967;51.634;5.566;2022-08-14T19:28:21;29.00;52.00
58153;DHT22;43967;51.634;5.566;2022-08-14T19:38:50;29.00;51.80
58153;DHT22;43967;51.634;5.566;2022-08-14T19:43:52;29.00;51.70
58153;DHT22;43967;51.634;5.566;2022-08-14T19:48:54;29.00;51.70
58153;DHT22;43967;51.634;5.566;2022-08-14T19:53:57;29.00;51.70
58153;DHT22;43967;51.634;5.566;2022-08-14T19:59:02;29.00;52.30
58153;DHT22;43967;51.634;5.566;2022-08-14T20:04:06;28.90;51.60
58153;DHT22;43967;51.634;5.566;2022-08-14T20:09:09;29.00;51.60
58153;DHT22;43967;51.634;5.566;2022-08-14T20:14:14;29.00;51.60
58153;DHT22;43967;51.634;5.566;2022-08-14T20:24:38;29.00;51.50
58153;DHT22;43967;51.634;5.566;2022-08-14T20:29:39;28.90;51.50
58153;DHT22;43967;51.634;5.566;2022-08-14T20:34:40;28.90;51.50
58153;DHT22;43967;51.634;5.566;2022-08-14T20:39:45;28.90;51.60
58153;DHT22;43967;51.634;5.566;2022-08-14T20:44:46;28.90;51.50
58153;DHT22;43967;51.634;5.566;2022-08-14T20:49:48;28.90;51.50
58153;DHT22;43967;51.634;5.566;2022-08-14T20:54:49;28.90;51.50
58153;DHT22;43967;51.634;5.566;2022-08-14T20:59:51;28.90;51.50
58153;DHT22;43967;51.634;5.566;2022-08-14T21:04:55;28.90;51.50
58153;DHT22;43967;51.634;5.566;2022-08-14T21:10:12;28.90;51.60
58153;DHT22;43967;51.634;5.566;2022-08-14T21:15:15;28.90;51.50
58153;DHT22;43967;51.634;5.566;2022-08-14T21:20:16;28.90;51.60
58153;DHT22;43967;51.634;5.566;2022-08-14T21:25:18;28.90;51.60
58153;DHT22;43967;51.634;5.566;2022-08-14T21:30:19;28.90;51.70
58153;DHT22;43967;51.634;5.566;2022-08-14T21:35:20;28.90;51.70
58153;DHT22;43967;51.634;5.566;2022-08-14T21:40:25;28.90;51.70
58153;DHT22;43967;51.634;5.566;2022-08-14T21:45:26;28.80;51.70
58153;DHT22;43967;51.634;5.566;2022-08-14T21:50:27;28.90;51.80
58153;DHT22;43967;51.634;5.566;2022-08-14T21:55:29;28.90;51.80
58153;DHT22;43967;51.634;5.566;2022-08-14T22:00:30;28.80;51.70
58153;DHT22;43967;51.634;5.566;2022-08-14T22:05:32;28.90;51.80
58153;DHT22;43967;51.634;5.566;2022-08-14T22:10:33;28.90;51.80
58153;DHT22;43967;51.634;5.566;2022-08-14T22:15:34;28.90;51.80
58153;DHT22;43967;51.634;5.566;2022-08-14T22:20:36;28.80;51.90
58153;DHT22;43967;51.634;5.566;2022-08-14T22:25:41;28.80;51.90
58153;DHT22;43967;51.634;5.566;2022-08-14T22:30:43;28.80;51.90
58153;DHT22;43967;51.634;5.566;2022-08-14T22:35:45;28.80;51.90
58153;DHT22;43967;51.634;5.566;2022-08-14T22:40:48;28.80;52.00
58153;DHT22;43967;51.634;5.566;2022-08-14T22:45:50;28.80;52.00
58153;DHT22;43967;51.634;5.566;2022-08-14T22:50:51;28.80;52.10
58153;DHT22;43967;51.634;5.566;2022-08-14T22:55:52;28.80;52.10
58153;DHT22;43967;51.634;5.566;2022-08-14T23:00:53;28.80;52.10
58153;DHT22;43967;51.634;5.566;2022-08-14T23:05:54;28.80;52.10
58153;DHT22;43967;51.634;5.566;2022-08-14T23:10:56;28.80;52.10
58153;DHT22;43967;51.634;5.566;2022-08-14T23:15:58;28.80;52.10
58153;DHT22;43967;51.634;5.566;2022-08-14T23:20:59;28.80;52.20
58153;DHT22;43967;51.634;5.566;2022-08-14T23:26:00;28.70;52.20
58153;DHT22;43967;51.634;5.566;2022-08-14T23:31:02;28.80;52.20
58153;DHT22;43967;51.634;5.566;2022-08-14T23:36:03;28.70;52.20
58153;DHT22;43967;51.634;5.566;2022-08-14T23:41:06;28.70;52.30
58153;DHT22;43967;51.634;5.566;2022-08-14T23:46:08;28.80;52.50
58153;DHT22;43967;51.634;5.566;2022-08-14T23:51:11;28.70;52.50
58153;DHT22;43967;51.634;5.566;2022-08-14T23:56:16;28.70;52.50
